Alexander Maersk — OZRC2 — position and weather

sailwx.info

Track history (hours):
 
Tides and Currents Weather Stations Pressure Air Temp Water Temp Dewpoint Dewpoint Depression Visibility Wind Speed Wind Dir Waves Ship Positions

Alexander Maersk

Last reported at 2015-Mar-26 03:33 UTC. Time now 2015-Apr-01 13:16 UTC.
Position N 35°45' E 014°36'.

Length 155 m; draft 6.2 m.

Type: Ship. MMSI: 219470000.

Date/timePositionNaut miles runAvg speedWind from/ knotsBaromVisibWave heightAir tempDewpointWater temp
2015-Mar-26 03:33N 35°45' E 014°36'1 0.9
2015-Mar-26 02:29N 35°46' E 014°38'1 1.2
2015-Mar-26 01:24N 35°45' E 014°39'1 1.7
2015-Mar-26 00:34N 35°44' E 014°40'2 1.7
2015-Mar-25 23:33N 35°42' E 014°41'2 1.6
2015-Mar-25 22:33N 35°41' E 014°42'1 1.5
2015-Mar-25 21:33N 35°40' E 014°43'2 1.6
2015-Mar-25 20:32N 35°38' E 014°44'2 1.8
2015-Mar-25 19:31N 35°36' E 014°44'1 0.0
2015-Mar-24 05:31N 35°38' E 014°43'2 1.1
2015-Mar-24 03:20N 35°38' E 014°46'39 6.4
2015-Mar-23 21:11N 34°60' E 014°32'  
Track history (hours):
 
Tides and Currents Weather Stations Pressure Air Temp Water Temp Dewpoint Dewpoint Depression Visibility Wind Speed Wind Dir Waves Ship Positions

Alexander Maersk

Last reported at 2015-Mar-26 03:33 UTC. Time now 2015-Apr-01 13:16 UTC.
Position N 35°45' E 014°36'.

Length 155 m; draft 6.2 m.

Type: Ship. MMSI: 219470000.

Date/timePositionNaut miles runAvg speedWind from/ knotsBaromVisibWave heightAir tempDewpointWater temp
2015-Mar-26 03:33N 35°45' E 014°36'1 0.9
2015-Mar-26 02:29N 35°46' E 014°38'1 1.2
2015-Mar-26 01:24N 35°45' E 014°39'1 1.7
2015-Mar-26 00:34N 35°44' E 014°40'2 1.7
2015-Mar-25 23:33N 35°42' E 014°41'2 1.6
2015-Mar-25 22:33N 35°41' E 014°42'1 1.5
2015-Mar-25 21:33N 35°40' E 014°43'2 1.6
2015-Mar-25 20:32N 35°38' E 014°44'2 1.8
2015-Mar-25 19:31N 35°36' E 014°44'1 0.0
2015-Mar-24 05:31N 35°38' E 014°43'2 1.1
2015-Mar-24 03:20N 35°38' E 014°46'39 6.4
2015-Mar-23 21:11N 34°60' E 014°32'  

Dump ship's entire track history